Coral Ruby — 3ERR6 — position and weather

sailwx.info

Track history (hours):
 
Tides and Currents Weather Stations Pressure Air Temp Water Temp Dewpoint Dewpoint Depression Visibility Wind Speed Wind Dir Waves Ship Positions

Coral Ruby

Last reported at 2015-Jan-25 09:31 UTC. Time now 2015-Jan-27 21:00 UTC.
Position N 33°52' E 134°58'.

Length 225 m; draft 7.5 m.

Type: Ship. MMSI: 370150000.

Date/timePositionNaut miles runAvg speedWind from/ knotsBaromVisibWave heightAir tempDewpointWater temp
2015-Jan-25 09:31N 33°52' E 134°58'1414.8
2015-Jan-25 08:33N 34°06' E 134°57'1313.0
2015-Jan-25 07:33N 34°19' E 134°59'1414.5
2015-Jan-25 06:33N 34°32' E 135°06'8 8.0
2015-Jan-25 05:33N 34°37' E 134°59'1312.6
2015-Jan-25 04:33N 34°33' E 134°44'11 9.8
2015-Jan-25 03:29N 34°42' E 134°50'0 0.0
2015-Jan-24 17:17N 34°43' E 134°50'0 0.0
2015-Jan-23 08:32N 34°43' E 134°50'0 0.0
2015-Jan-23 06:20N 34°43' E 134°50'0 0.0
2015-Jan-23 05:32N 34°43' E 134°50'0 0.0
2015-Jan-23 04:20N 34°43' E 134°50'0 0.0
2015-Jan-23 02:32N 34°43' E 134°50'0 0.0
2015-Jan-23 01:20N 34°43' E 134°50'0 0.0
2015-Jan-23 00:32N 34°43' E 134°50'0 0.0
2015-Jan-22 23:32N 34°43' E 134°50'0 0.0
2015-Jan-22 22:20N 34°43' E 134°50'0 0.0
2015-Jan-22 21:26N 34°43' E 134°50'0 0.0
2015-Jan-22 20:26N 34°43' E 134°50'0 0.0
2015-Jan-22 19:32N 34°43' E 134°50'0 0.0
2015-Jan-22 18:26N 34°43' E 134°50'0 0.0
2015-Jan-22 17:32N 34°43' E 134°50'0 0.0
2015-Jan-22 16:26N 34°43' E 134°50'0 0.0
2015-Jan-22 15:26N 34°43' E 134°50'0 0.0
2015-Jan-22 14:32N 34°43' E 134°50'0 0.0
2015-Jan-22 13:26N 34°43' E 134°50'0 0.0
2015-Jan-22 12:32N 34°43' E 134°50'0 0.0
2015-Jan-22 11:32N 34°43' E 134°50'0 0.0
2015-Jan-22 10:32N 34°43' E 134°50'0 0.0
2015-Jan-22 09:32N 34°43' E 134°50'0 0.0
2015-Jan-22 08:32N 34°43' E 134°50'0 0.0
2015-Jan-22 07:08N 34°43' E 134°50'0 0.0
2015-Jan-22 06:26N 34°43' E 134°50'0 0.0
2015-Jan-22 04:32N 34°43' E 134°50'0 0.0
2015-Jan-22 03:20N 34°43' E 134°50'0 0.2
2015-Jan-22 02:22N 34°43' E 134°50'5 3.6
2015-Jan-22 01:06N 34°40' E 134°46'0 0.0
2015-Jan-22 00:12N 34°40' E 134°46'0 0.0
2015-Jan-21 21:24N 34°40' E 134°46'0 0.2
2015-Jan-21 20:24N 34°40' E 134°46'0 0.0
2015-Jan-21 14:18N 34°40' E 134°46'0 0.1
2015-Jan-21 13:18N 34°40' E 134°46'0 0.0
2015-Jan-21 11:06N 34°40' E 134°46'0 0.0
2015-Jan-21 10:30N 34°40' E 134°46'0 0.0
2015-Jan-20 22:30N 34°40' E 134°46'0 0.0
2015-Jan-20 21:30N 34°40' E 134°46'0 0.0
2015-Jan-20 13:24N 34°40' E 134°46'0 0.0
2015-Jan-20 08:30N 34°40' E 134°46'0 0.2
2015-Jan-20 07:18N 34°40' E 134°46'5 1.8
2015-Jan-20 04:18N 34°35' E 134°43'1211.4
2015-Jan-20 03:16N 34°37' E 134°57'810.3
2015-Jan-20 02:32N 34°35' E 135°06'6 6.2
2015-Jan-20 01:33N 34°29' E 135°06'1010.2
2015-Jan-20 00:33N 34°20' E 135°00'1110.8
2015-Jan-19 23:33N 34°09' E 134°60'8 8.2
2015-Jan-19 22:33N 34°01' E 134°59'6 6.4
2015-Jan-19 21:33N 33°54' E 134°58'  
Track history (hours):
 
Tides and Currents Weather Stations Pressure Air Temp Water Temp Dewpoint Dewpoint Depression Visibility Wind Speed Wind Dir Waves Ship Positions

Coral Ruby

Last reported at 2015-Jan-25 09:31 UTC. Time now 2015-Jan-27 21:00 UTC.
Position N 33°52' E 134°58'.

Length 225 m; draft 7.5 m.

Type: Ship. MMSI: 370150000.

Date/timePositionNaut miles runAvg speedWind from/ knotsBaromVisibWave heightAir tempDewpointWater temp
2015-Jan-25 09:31N 33°52' E 134°58'1414.8
2015-Jan-25 08:33N 34°06' E 134°57'1313.0
2015-Jan-25 07:33N 34°19' E 134°59'1414.5
2015-Jan-25 06:33N 34°32' E 135°06'8 8.0
2015-Jan-25 05:33N 34°37' E 134°59'1312.6
2015-Jan-25 04:33N 34°33' E 134°44'11 9.8
2015-Jan-25 03:29N 34°42' E 134°50'0 0.0
2015-Jan-24 17:17N 34°43' E 134°50'0 0.0
2015-Jan-23 08:32N 34°43' E 134°50'0 0.0
2015-Jan-23 06:20N 34°43' E 134°50'0 0.0
2015-Jan-23 05:32N 34°43' E 134°50'0 0.0
2015-Jan-23 04:20N 34°43' E 134°50'0 0.0
2015-Jan-23 02:32N 34°43' E 134°50'0 0.0
2015-Jan-23 01:20N 34°43' E 134°50'0 0.0
2015-Jan-23 00:32N 34°43' E 134°50'0 0.0
2015-Jan-22 23:32N 34°43' E 134°50'0 0.0
2015-Jan-22 22:20N 34°43' E 134°50'0 0.0
2015-Jan-22 21:26N 34°43' E 134°50'0 0.0
2015-Jan-22 20:26N 34°43' E 134°50'0 0.0
2015-Jan-22 19:32N 34°43' E 134°50'0 0.0
2015-Jan-22 18:26N 34°43' E 134°50'0 0.0
2015-Jan-22 17:32N 34°43' E 134°50'0 0.0
2015-Jan-22 16:26N 34°43' E 134°50'0 0.0
2015-Jan-22 15:26N 34°43' E 134°50'0 0.0
2015-Jan-22 14:32N 34°43' E 134°50'0 0.0
2015-Jan-22 13:26N 34°43' E 134°50'0 0.0
2015-Jan-22 12:32N 34°43' E 134°50'0 0.0
2015-Jan-22 11:32N 34°43' E 134°50'0 0.0
2015-Jan-22 10:32N 34°43' E 134°50'0 0.0
2015-Jan-22 09:32N 34°43' E 134°50'0 0.0
2015-Jan-22 08:32N 34°43' E 134°50'0 0.0
2015-Jan-22 07:08N 34°43' E 134°50'0 0.0
2015-Jan-22 06:26N 34°43' E 134°50'0 0.0
2015-Jan-22 04:32N 34°43' E 134°50'0 0.0
2015-Jan-22 03:20N 34°43' E 134°50'0 0.2
2015-Jan-22 02:22N 34°43' E 134°50'5 3.6
2015-Jan-22 01:06N 34°40' E 134°46'0 0.0
2015-Jan-22 00:12N 34°40' E 134°46'0 0.0
2015-Jan-21 21:24N 34°40' E 134°46'0 0.2
2015-Jan-21 20:24N 34°40' E 134°46'0 0.0
2015-Jan-21 14:18N 34°40' E 134°46'0 0.1
2015-Jan-21 13:18N 34°40' E 134°46'0 0.0
2015-Jan-21 11:06N 34°40' E 134°46'0 0.0
2015-Jan-21 10:30N 34°40' E 134°46'0 0.0
2015-Jan-20 22:30N 34°40' E 134°46'0 0.0
2015-Jan-20 21:30N 34°40' E 134°46'0 0.0
2015-Jan-20 13:24N 34°40' E 134°46'0 0.0
2015-Jan-20 08:30N 34°40' E 134°46'0 0.2
2015-Jan-20 07:18N 34°40' E 134°46'5 1.8
2015-Jan-20 04:18N 34°35' E 134°43'1211.4
2015-Jan-20 03:16N 34°37' E 134°57'810.3
2015-Jan-20 02:32N 34°35' E 135°06'6 6.2
2015-Jan-20 01:33N 34°29' E 135°06'1010.2
2015-Jan-20 00:33N 34°20' E 135°00'1110.8
2015-Jan-19 23:33N 34°09' E 134°60'8 8.2
2015-Jan-19 22:33N 34°01' E 134°59'6 6.4
2015-Jan-19 21:33N 33°54' E 134°58'  

Dump ship's entire track history